createdAt,value
2022-11-03T00:02:59.722Z,100.00
2022-11-03T00:06:12.581Z,100.00
2022-11-03T00:09:27.370Z,100.00
2022-11-03T00:12:39.913Z,100.00
2022-11-03T00:15:57.399Z,100.00
2022-11-03T00:19:10.968Z,100.00
2022-11-03T00:22:23.355Z,100.00
2022-11-03T00:25:35.702Z,100.00
2022-11-03T00:28:50.470Z,100.00
2022-11-03T00:32:02.901Z,100.00
2022-11-03T00:35:16.055Z,100.00
2022-11-03T00:38:28.708Z,100.00
2022-11-03T00:41:41.769Z,100.00
2022-11-03T00:44:54.285Z,100.00
2022-11-03T00:48:21.030Z,100.00
2022-11-03T00:51:34.946Z,100.00
2022-11-03T00:54:51.320Z,100.00
2022-11-03T00:58:02.413Z,100.00
2022-11-03T01:01:17.621Z,100.00
2022-11-03T01:04:44.405Z,100.00
2022-11-03T01:07:56.796Z,100.00
2022-11-03T01:11:30.988Z,100.00
2022-11-03T01:14:46.112Z,100.00
2022-11-03T01:17:58.836Z,100.00
2022-11-03T01:21:11.864Z,100.00
2022-11-03T01:24:24.477Z,100.00
2022-11-03T01:27:37.759Z,100.00
2022-11-03T01:30:50.123Z,100.00
2022-11-03T01:34:03.506Z,100.00
2022-11-03T01:37:16.125Z,100.00
2022-11-03T01:40:29.198Z,100.00
2022-11-03T01:43:43.873Z,100.00
2022-11-03T01:47:00.781Z,100.00
2022-11-03T01:50:16.896Z,100.00
2022-11-03T01:53:30.160Z,100.00
2022-11-03T01:56:46.788Z,100.00
2022-11-03T02:00:00.566Z,100.00
2022-11-03T02:03:13.738Z,100.00
2022-11-03T02:06:28.616Z,100.00
2022-11-03T02:09:41.100Z,100.00
2022-11-03T02:12:54.423Z,100.00
2022-11-03T02:16:08.210Z,100.00
2022-11-03T02:19:26.548Z,100.00
2022-11-03T02:23:13.822Z,100.00
2022-11-03T02:26:26.602Z,100.00
2022-11-03T02:29:39.037Z,100.00
2022-11-03T02:33:00.461Z,100.00
2022-11-03T02:36:18.115Z,100.00
2022-11-03T02:39:35.207Z,100.00
2022-11-03T02:42:46.888Z,100.00
2022-11-03T02:46:01.644Z,100.00
2022-11-03T02:49:13.850Z,100.00
2022-11-03T02:52:47.205Z,100.00
2022-11-03T02:56:06.403Z,100.00
2022-11-03T02:59:22.698Z,100.00
2022-11-03T03:02:39.689Z,100.00
2022-11-03T03:05:54.391Z,100.00
2022-11-03T03:09:11.306Z,100.00
2022-11-03T03:12:26.348Z,100.00
2022-11-03T03:15:46.174Z,100.00
2022-11-03T03:19:04.419Z,100.00
2022-11-03T03:22:23.873Z,100.00
2022-11-03T03:25:40.963Z,100.00
2022-11-03T03:28:54.102Z,100.00
2022-11-03T03:32:11.070Z,100.00
2022-11-03T03:35:24.142Z,100.00
2022-11-03T03:38:41.695Z,100.00
2022-11-03T03:41:55.536Z,100.00
2022-11-03T03:45:10.546Z,100.00
2022-11-03T03:48:23.545Z,100.00
2022-11-03T03:51:38.403Z,100.00
2022-11-03T03:54:51.112Z,100.00
2022-11-03T03:58:03.431Z,100.00
2022-11-03T04:01:19.033Z,100.00
2022-11-03T04:04:31.970Z,100.00
2022-11-03T04:07:53.229Z,100.00
2022-11-03T04:11:19.853Z,100.00
2022-11-03T04:14:46.269Z,100.00
2022-11-03T04:18:12.999Z,100.00
2022-11-03T04:21:39.624Z,100.00
2022-11-03T04:24:53.746Z,100.00
2022-11-03T04:28:06.641Z,100.00
2022-11-03T04:31:21.601Z,100.00
2022-11-03T04:34:34.157Z,100.00
2022-11-03T04:37:47.862Z,100.00
2022-11-03T04:41:03.522Z,100.00
2022-11-03T04:44:21.009Z,100.00
2022-11-03T04:47:34.601Z,100.00
2022-11-03T04:50:49.701Z,100.00
2022-11-03T04:54:06.471Z,100.00
2022-11-03T04:57:19.393Z,100.00
2022-11-03T05:00:31.802Z,100.00
2022-11-03T05:03:45.926Z,100.00
2022-11-03T05:06:59.478Z,100.00
2022-11-03T05:10:15.247Z,100.00
2022-11-03T05:13:30.572Z,100.00
2022-11-03T05:16:42.942Z,100.00
2022-11-03T05:19:57.776Z,100.00
2022-11-03T05:23:10.975Z,100.00
2022-11-03T05:26:29.209Z,100.00
2022-11-03T05:29:44.449Z,100.00
2022-11-03T05:32:56.874Z,100.00
2022-11-03T05:36:17.452Z,100.00
2022-11-03T05:39:39.466Z,100.00
2022-11-03T05:42:54.022Z,100.00
2022-11-03T05:46:09.450Z,100.00
2022-11-03T05:49:22.116Z,100.00
2022-11-03T05:52:35.323Z,100.00
2022-11-03T05:55:48.959Z,100.00
2022-11-03T05:59:03.178Z,100.00
2022-11-03T06:02:24.222Z,100.00
2022-11-03T06:05:38.875Z,100.00
2022-11-03T06:08:51.419Z,100.00
2022-11-03T06:12:07.013Z,100.00
2022-11-03T06:15:33.997Z,100.00
2022-11-03T06:18:46.661Z,100.00
2022-11-03T06:22:01.878Z,100.00
2022-11-03T06:25:24.034Z,100.00
2022-11-03T06:28:41.145Z,100.00
2022-11-03T06:31:54.200Z,100.00
2022-11-03T06:35:06.970Z,100.00
2022-11-03T06:38:25.974Z,100.00
2022-11-03T06:41:42.138Z,100.00
2022-11-03T06:44:57.144Z,100.00
2022-11-03T06:48:16.464Z,100.00
2022-11-03T06:51:31.464Z,100.00
2022-11-03T06:54:43.498Z,100.00
2022-11-03T06:57:59.909Z,100.00
2022-11-03T07:01:21.140Z,100.00
2022-11-03T07:04:34.709Z,100.00
2022-11-03T07:07:46.930Z,100.00
2022-11-03T07:11:11.348Z,100.00
2022-11-03T07:14:27.809Z,100.00
2022-11-03T07:17:40.248Z,100.00
2022-11-03T07:20:53.431Z,100.00
2022-11-03T07:24:09.731Z,100.00
2022-11-03T07:27:28.474Z,100.00
2022-11-03T07:30:42.607Z,100.00
2022-11-03T07:33:54.835Z,100.00
2022-11-03T07:37:08.055Z,100.00
2022-11-03T07:40:25.993Z,100.00
2022-11-03T07:43:40.907Z,100.00
2022-11-03T07:46:53.944Z,100.00
2022-11-03T07:50:06.175Z,100.00
2022-11-03T07:53:26.223Z,100.00
2022-11-03T07:56:43.786Z,99.18
2022-11-03T07:59:58.764Z,96.57
2022-11-03T08:03:14.801Z,94.41
2022-11-03T08:06:26.973Z,90.67
2022-11-03T08:09:39.184Z,87.10
2022-11-03T08:12:51.311Z,82.80
2022-11-03T08:16:03.661Z,79.97
2022-11-03T08:19:15.866Z,77.75
2022-11-03T08:22:27.925Z,74.34
2022-11-03T08:25:40.156Z,73.62
2022-11-03T08:28:52.304Z,72.21
2022-11-03T08:32:04.793Z,72.28
2022-11-03T08:35:17.535Z,71.08
2022-11-03T08:38:29.609Z,73.67
2022-11-03T08:41:41.784Z,74.67
2022-11-03T08:44:54.004Z,72.47
2022-11-03T08:48:06.292Z,70.10
2022-11-03T08:51:19.186Z,67.37
2022-11-03T08:54:31.376Z,65.96
2022-11-03T08:57:43.564Z,62.96
2022-11-03T09:00:55.887Z,62.90
2022-11-03T09:04:08.683Z,60.90
2022-11-03T09:07:21.196Z,63.42
2022-11-03T09:10:36.916Z,63.97
2022-11-03T09:13:48.781Z,65.57
2022-11-03T09:20:15.292Z,69.75
2022-11-03T09:23:27.463Z,72.92
2022-11-03T09:26:39.810Z,73.39
2022-11-03T09:30:12.074Z,73.90
2022-11-03T09:33:06.268Z,73.75
2022-11-03T09:36:18.609Z,72.42
2022-11-03T09:39:30.892Z,73.43
2022-11-03T09:42:44.923Z,74.41
2022-11-03T09:45:57.164Z,73.83
2022-11-03T09:49:10.991Z,75.20
2022-11-03T09:52:27.430Z,75.10
2022-11-03T09:55:43.356Z,75.03
2022-11-03T09:58:56.003Z,75.57
2022-11-03T10:02:08.235Z,76.95
2022-11-03T10:05:25.499Z,76.56
2022-11-03T10:08:41.959Z,76.15
2022-11-03T10:11:55.480Z,75.38
2022-11-03T10:15:08.024Z,76.50
2022-11-03T10:18:21.008Z,75.13
2022-11-03T10:21:38.069Z,75.70
2022-11-03T10:24:50.131Z,73.85
2022-11-03T10:28:27.381Z,72.53
2022-11-03T10:31:45.056Z,71.84
2022-11-03T10:34:57.184Z,72.40
2022-11-03T10:38:31.690Z,69.12
2022-11-03T10:41:43.784Z,66.74
2022-11-03T10:44:58.397Z,65.23
2022-11-03T10:48:13.769Z,62.32
2022-11-03T10:51:26.079Z,61.80
2022-11-03T10:54:40.575Z,62.73
2022-11-03T10:57:55.465Z,62.74
2022-11-03T11:01:07.968Z,60.66
2022-11-03T11:04:23.686Z,59.83
2022-11-03T11:07:40.779Z,58.94
2022-11-03T11:10:53.863Z,58.44
2022-11-03T11:17:53.574Z,58.44
2022-11-03T11:21:07.545Z,59.17
2022-11-03T11:24:20.657Z,57.39
2022-11-03T11:28:03.048Z,57.57
2022-11-03T11:31:36.787Z,57.34
2022-11-03T11:34:48.927Z,57.16
2022-11-03T11:38:01.388Z,56.56
2022-11-03T11:41:14.233Z,58.70
2022-11-03T11:45:07.196Z,58.12
2022-11-03T11:48:25.511Z,57.09
2022-11-03T11:51:41.616Z,59.75
2022-11-03T11:54:54.027Z,58.06
2022-11-03T11:58:08.450Z,59.79
2022-11-03T12:01:34.202Z,59.41
2022-11-03T12:04:48.684Z,62.35
2022-11-03T12:08:01.553Z,62.31
2022-11-03T12:11:16.812Z,64.68
2022-11-03T12:14:38.936Z,62.15
2022-11-03T12:17:51.553Z,62.55
2022-11-03T12:21:03.897Z,64.32
2022-11-03T12:24:45.938Z,63.25
2022-11-03T12:27:58.268Z,62.64
2022-11-03T12:31:10.985Z,63.88
2022-11-03T12:34:24.135Z,63.84
2022-11-03T12:37:36.336Z,65.01
2022-11-03T12:40:48.669Z,64.35
2022-11-03T12:44:01.255Z,67.09
2022-11-03T12:50:40.648Z,66.34
2022-11-03T12:53:53.371Z,66.66
2022-11-03T12:57:05.650Z,66.94
2022-11-03T13:00:20.906Z,67.79
2022-11-03T13:03:34.130Z,64.58
2022-11-03T13:06:46.469Z,64.59
2022-11-03T13:09:58.707Z,65.43
2022-11-03T13:13:11.144Z,67.88
2022-11-03T13:16:23.356Z,67.71
2022-11-03T13:19:35.730Z,67.68
2022-11-03T13:22:48.661Z,68.08
2022-11-03T13:26:01.453Z,67.70
2022-11-03T13:29:13.903Z,67.07
2022-11-03T13:32:26.203Z,67.64
2022-11-03T13:35:38.435Z,67.08
2022-11-03T13:38:52.519Z,66.62
2022-11-03T13:42:04.884Z,69.29
2022-11-03T13:45:18.629Z,68.85
2022-11-03T13:49:33.146Z,68.13
2022-11-03T13:51:45.249Z,68.85
2022-11-03T14:01:27.804Z,69.28
2022-11-03T14:07:53.839Z,71.22
2022-11-03T14:11:08.754Z,71.09
2022-11-03T14:14:21.265Z,71.43
2022-11-03T14:17:36.181Z,71.25
2022-11-03T14:23:55.678Z,71.86
2022-11-03T14:27:09.016Z,72.40
2022-11-03T14:30:22.712Z,72.93
2022-11-03T14:33:35.720Z,72.84
2022-11-03T14:36:48.507Z,73.69
2022-11-03T14:40:01.137Z,74.27
2022-11-03T14:43:13.481Z,74.02
2022-11-03T14:46:26.017Z,75.01
2022-11-03T14:49:39.872Z,75.81
2022-11-03T14:52:55.000Z,76.24
2022-11-03T14:56:07.222Z,79.01
2022-11-03T14:59:19.706Z,80.32
2022-11-03T15:02:32.629Z,81.05
2022-11-03T15:05:53.119Z,81.78
2022-11-03T15:09:05.422Z,82.33
2022-11-03T15:12:17.856Z,82.91
2022-11-03T15:15:30.176Z,83.50
2022-11-03T15:18:44.159Z,82.68
2022-11-03T15:21:56.322Z,84.20
2022-11-03T15:28:24.719Z,86.90
2022-11-03T15:31:37.259Z,86.35
2022-11-03T15:34:49.491Z,86.32
2022-11-03T15:38:02.752Z,86.35
2022-11-03T15:41:21.326Z,86.38
2022-11-03T15:44:34.736Z,87.27
2022-11-03T15:47:47.175Z,87.47
2022-11-03T15:50:59.359Z,87.34
2022-11-03T15:54:12.214Z,88.82
2022-11-03T15:57:24.566Z,88.79
2022-11-03T16:00:36.919Z,90.35
2022-11-03T16:03:49.117Z,90.52
2022-11-03T16:07:07.757Z,90.31
2022-11-03T16:10:17.227Z,89.21
2022-11-03T16:13:29.882Z,88.60
2022-11-03T16:16:42.437Z,89.12
2022-11-03T16:19:55.397Z,88.63
2022-11-03T16:23:07.787Z,88.80
2022-11-03T16:26:22.249Z,89.76
2022-11-03T16:29:35.017Z,89.22
2022-11-03T16:32:47.262Z,89.71
2022-11-03T16:35:59.472Z,89.93
2022-11-03T16:39:11.978Z,90.36
2022-11-03T16:42:24.368Z,90.35
2022-11-03T16:45:38.110Z,90.29
2022-11-03T16:48:51.139Z,90.88
2022-11-03T16:52:03.391Z,91.46
2022-11-03T16:55:17.201Z,92.02
2022-11-03T16:58:30.200Z,92.32
2022-11-03T17:01:42.829Z,93.97
2022-11-03T17:04:55.226Z,96.62
2022-11-03T17:08:20.489Z,96.31
2022-11-03T17:11:25.553Z,95.44
2022-11-03T17:14:38.094Z,95.71
2022-11-03T17:17:50.629Z,96.42
2022-11-03T17:21:03.109Z,97.14
2022-11-03T17:24:16.712Z,99.27
2022-11-03T17:27:32.951Z,98.91
2022-11-03T17:30:48.044Z,99.27
2022-11-03T17:34:01.472Z,98.76
2022-11-03T17:37:14.043Z,96.43
2022-11-03T17:40:29.457Z,96.89
2022-11-03T17:43:44.959Z,97.88
2022-11-03T17:46:57.412Z,98.43
2022-11-03T17:50:10.537Z,96.61
2022-11-03T17:53:28.945Z,97.87
2022-11-03T17:56:42.421Z,97.79
2022-11-03T17:59:57.981Z,98.24
2022-11-03T18:03:13.218Z,97.80
2022-11-03T18:06:27.001Z,98.27
2022-11-03T18:09:39.278Z,98.69
2022-11-03T18:13:09.801Z,98.97
2022-11-03T18:16:22.980Z,98.69
2022-11-03T18:19:36.662Z,99.15
2022-11-03T18:22:49.626Z,98.20
2022-11-03T18:26:02.697Z,98.68
2022-11-03T18:29:15.857Z,99.93
2022-11-03T18:32:31.837Z,100.00
2022-11-03T18:35:42.962Z,99.76
2022-11-03T18:38:57.799Z,98.96
2022-11-03T18:42:13.174Z,98.69
2022-11-03T18:45:26.531Z,99.04
2022-11-03T18:48:39.132Z,100.00
2022-11-03T18:52:00.928Z,98.73
2022-11-03T18:55:13.226Z,97.53
2022-11-03T18:58:28.987Z,98.01
2022-11-03T19:01:42.037Z,99.04
2022-11-03T19:04:46.981Z,98.00
2022-11-03T19:07:59.709Z,98.30
2022-11-03T19:11:12.245Z,99.37
2022-11-03T19:14:29.824Z,98.66
2022-11-03T19:17:43.937Z,99.52
2022-11-03T19:20:56.329Z,99.58
2022-11-03T19:24:09.014Z,100.00
2022-11-03T19:30:36.181Z,100.00
2022-11-03T19:33:48.963Z,100.00
2022-11-03T19:37:02.835Z,100.00
2022-11-03T19:40:22.085Z,100.00
2022-11-03T19:43:35.212Z,100.00
2022-11-03T19:46:48.765Z,100.00
2022-11-03T19:50:01.757Z,100.00
2022-11-03T19:53:17.674Z,100.00
2022-11-03T19:56:30.726Z,100.00
2022-11-03T19:59:43.389Z,100.00
2022-11-03T20:02:55.750Z,100.00
2022-11-03T20:06:08.974Z,100.00
2022-11-03T20:09:24.851Z,100.00
2022-11-03T20:12:37.566Z,100.00
2022-11-03T20:15:51.287Z,100.00
2022-11-03T20:19:05.399Z,100.00
2022-11-03T20:22:23.964Z,100.00
2022-11-03T20:25:39.479Z,100.00
2022-11-03T20:28:53.101Z,100.00
2022-11-03T20:32:05.946Z,100.00
2022-11-03T20:35:24.175Z,100.00
2022-11-03T20:38:37.834Z,100.00
2022-11-03T20:41:55.566Z,100.00
2022-11-03T20:45:13.655Z,100.00
2022-11-03T20:48:26.119Z,100.00
2022-11-03T20:51:43.359Z,100.00
2022-11-03T20:54:54.815Z,100.00
2022-11-03T20:58:07.381Z,100.00
2022-11-03T21:01:27.212Z,100.00
2022-11-03T21:04:41.074Z,100.00
2022-11-03T21:07:54.989Z,100.00
2022-11-03T21:11:17.949Z,100.00
2022-11-03T21:14:33.956Z,100.00
2022-11-03T21:18:00.726Z,100.00
2022-11-03T21:21:19.663Z,100.00
2022-11-03T21:24:28.942Z,100.00
2022-11-03T21:27:42.080Z,100.00
2022-11-03T21:30:57.912Z,100.00
2022-11-03T21:34:10.428Z,100.00
2022-11-03T21:37:23.719Z,100.00
2022-11-03T21:40:36.548Z,100.00
2022-11-03T21:44:03.311Z,100.00
2022-11-03T21:47:17.073Z,100.00
2022-11-03T21:50:29.750Z,100.00
2022-11-03T21:53:42.203Z,100.00
2022-11-03T21:56:54.743Z,100.00
2022-11-03T22:00:07.215Z,100.00
2022-11-03T22:03:19.777Z,100.00
2022-11-03T22:06:32.701Z,100.00
2022-11-03T22:09:45.149Z,100.00
2022-11-03T22:12:57.543Z,100.00
2022-11-03T22:16:24.740Z,100.00
2022-11-03T22:19:51.380Z,100.00
2022-11-03T22:23:20.021Z,100.00
2022-11-03T22:26:47.152Z,100.00
2022-11-03T22:30:14.147Z,100.00
2022-11-03T22:33:26.755Z,100.00
2022-11-03T22:36:38.918Z,100.00
2022-11-03T22:40:05.636Z,100.00
2022-11-03T22:43:32.132Z,100.00
2022-11-03T22:46:44.475Z,100.00
2022-11-03T22:49:56.656Z,100.00
2022-11-03T22:53:11.362Z,100.00
2022-11-03T22:56:24.591Z,100.00
2022-11-03T22:59:37.122Z,100.00
2022-11-03T23:02:49.697Z,100.00
2022-11-03T23:06:05.110Z,100.00
2022-11-03T23:09:17.817Z,100.00
2022-11-03T23:12:30.919Z,100.00
2022-11-03T23:15:43.831Z,100.00
2022-11-03T23:19:10.267Z,100.00
2022-11-03T23:22:22.471Z,100.00
2022-11-03T23:25:34.972Z,100.00
2022-11-03T23:28:47.713Z,100.00
2022-11-03T23:32:00.743Z,100.00
2022-11-03T23:35:15.096Z,100.00
2022-11-03T23:38:27.307Z,100.00
2022-11-03T23:41:40.122Z,100.00
2022-11-03T23:45:06.632Z,100.00
2022-11-03T23:48:33.409Z,100.00
2022-11-03T23:51:46.314Z,100.00
2022-11-03T23:54:58.433Z,100.00
2022-11-03T23:58:23.024Z,100.00
